createdAt,value
2022-10-31T00:01:02.547Z,16.63
2022-10-31T00:03:29.755Z,17.00
2022-10-31T00:05:56.830Z,10.90
2022-10-31T00:08:23.848Z,11.75
2022-10-31T00:10:50.890Z,11.88
2022-10-31T00:13:17.968Z,16.60
2022-10-31T00:15:45.421Z,12.02
2022-10-31T00:18:12.695Z,9.45
2022-10-31T00:20:40.271Z,10.73
2022-10-31T00:23:09.950Z,16.25
2022-10-31T00:25:41.717Z,10.35
2022-10-31T00:28:12.963Z,10.75
2022-10-31T00:30:40.257Z,17.50
2022-10-31T00:33:07.698Z,9.52
2022-10-31T00:35:35.545Z,10.65
2022-10-31T00:38:02.742Z,11.55
2022-10-31T00:40:29.796Z,10.27
2022-10-31T00:42:57.206Z,14.65
2022-10-31T00:45:24.539Z,16.25
2022-10-31T00:47:51.755Z,14.80
2022-10-31T00:50:18.671Z,11.50
2022-10-31T00:52:45.889Z,11.65
2022-10-31T00:55:12.883Z,11.68
2022-10-31T00:57:40.389Z,15.35
2022-10-31T01:00:08.355Z,15.48
2022-10-31T01:02:35.982Z,17.05
2022-10-31T01:05:02.906Z,12.52
2022-10-31T01:07:30.114Z,13.48
2022-10-31T01:09:57.050Z,13.80
2022-10-31T01:12:24.514Z,16.92
2022-10-31T01:14:51.493Z,13.68
2022-10-31T01:17:19.156Z,23.98
2022-10-31T01:19:47.599Z,14.45
2022-10-31T01:22:14.706Z,18.50
2022-10-31T01:24:41.876Z,18.73
2022-10-31T01:27:11.015Z,12.90
2022-10-31T01:29:38.727Z,15.07
2022-10-31T01:32:06.847Z,10.88
2022-10-31T01:34:34.837Z,11.70
2022-10-31T01:37:07.325Z,13.40
2022-10-31T01:39:36.675Z,13.50
2022-10-31T01:42:04.156Z,9.52
2022-10-31T01:44:31.504Z,14.70
2022-10-31T01:47:05.348Z,17.45
2022-10-31T01:49:37.462Z,10.85
2022-10-31T01:52:17.932Z,14.05
2022-10-31T01:54:54.241Z,9.43
2022-10-31T01:57:33.967Z,12.57
2022-10-31T02:00:07.700Z,13.80
2022-10-31T02:02:40.660Z,14.15
2022-10-31T02:05:13.689Z,13.77
2022-10-31T02:07:58.518Z,14.35
2022-10-31T02:10:31.742Z,13.50
2022-10-31T02:13:02.718Z,11.20
2022-10-31T02:15:31.156Z,11.13
2022-10-31T02:17:59.404Z,12.60
2022-10-31T02:20:32.384Z,11.52
2022-10-31T02:23:08.310Z,12.93
2022-10-31T02:26:03.269Z,16.85
2022-10-31T02:28:47.403Z,14.63
2022-10-31T02:31:36.130Z,22.48
2022-10-31T02:34:15.822Z,10.85
2022-10-31T02:36:56.055Z,14.70
2022-10-31T02:39:31.631Z,14.10
2022-10-31T02:42:15.476Z,11.05
2022-10-31T02:44:54.801Z,11.52
2022-10-31T02:47:30.826Z,17.08
2022-10-31T02:50:12.608Z,17.10
2022-10-31T02:52:40.025Z,11.50
2022-10-31T02:55:31.138Z,14.63
2022-10-31T02:58:08.313Z,15.38
2022-10-31T03:01:07.271Z,12.85
2022-10-31T03:03:59.231Z,20.35
2022-10-31T03:06:40.765Z,15.10
2022-10-31T03:09:39.717Z,20.83
2022-10-31T03:12:12.702Z,20.15
2022-10-31T03:15:02.859Z,12.82
2022-10-31T03:18:03.862Z,12.27
2022-10-31T03:20:41.622Z,14.88
2022-10-31T03:23:14.725Z,12.38
2022-10-31T03:25:43.309Z,16.95
2022-10-31T03:28:14.597Z,12.65
2022-10-31T03:30:45.450Z,13.50
2022-10-31T03:33:18.729Z,13.15
2022-10-31T03:35:52.170Z,12.10
2022-10-31T03:38:21.332Z,22.98
2022-10-31T03:40:51.298Z,16.40
2022-10-31T03:45:49.996Z,10.65
2022-10-31T03:48:21.480Z,11.23
2022-10-31T03:50:57.645Z,13.77
2022-10-31T03:53:32.370Z,9.80
2022-10-31T03:56:11.102Z,9.32
2022-10-31T03:58:46.540Z,15.38
2022-10-31T04:01:18.063Z,12.20
2022-10-31T04:03:46.240Z,17.58
2022-10-31T04:06:18.385Z,14.30
2022-10-31T04:09:12.117Z,11.30
2022-10-31T04:11:49.855Z,11.48
2022-10-31T04:14:36.718Z,10.40
2022-10-31T04:17:06.346Z,7.15
2022-10-31T04:19:37.481Z,11.10
2022-10-31T04:22:04.600Z,22.92
2022-10-31T04:24:31.704Z,7.88
2022-10-31T04:26:59.534Z,10.55
2022-10-31T04:29:27.442Z,12.73
2022-10-31T04:31:55.021Z,15.85
2022-10-31T04:34:22.346Z,16.20
2022-10-31T04:36:50.521Z,12.45
2022-10-31T04:39:22.678Z,11.77
2022-10-31T04:42:16.205Z,10.50
2022-10-31T04:44:43.372Z,10.32
2022-10-31T04:47:10.474Z,10.25
2022-10-31T04:49:37.835Z,15.25
2022-10-31T04:52:05.925Z,17.50
2022-10-31T04:54:33.739Z,16.92
2022-10-31T04:57:19.171Z,16.48
2022-10-31T04:59:47.238Z,15.88
2022-10-31T05:02:14.590Z,19.38
2022-10-31T05:04:54.975Z,23.65
2022-10-31T05:07:22.645Z,16.33
2022-10-31T05:09:49.808Z,20.60
2022-10-31T05:12:19.411Z,23.33
2022-10-31T05:15:07.064Z,20.25
2022-10-31T05:18:10.215Z,17.58
2022-10-31T05:20:56.092Z,25.75
2022-10-31T05:23:36.345Z,32.95
2022-10-31T05:26:05.887Z,49.08
2022-10-31T05:28:34.836Z,24.67
2022-10-31T05:31:03.285Z,19.98
2022-10-31T05:33:31.604Z,26.00
2022-10-31T05:36:17.135Z,23.92
2022-10-31T05:39:13.243Z,29.50
2022-10-31T05:41:43.254Z,26.50
2022-10-31T05:44:16.743Z,25.42
2022-10-31T05:47:09.961Z,23.08
2022-10-31T05:49:57.623Z,21.73
2022-10-31T05:52:43.857Z,17.73
2022-10-31T05:55:28.124Z,24.40
2022-10-31T05:58:04.488Z,22.92
2022-10-31T06:00:33.281Z,30.98
2022-10-31T06:05:55.369Z,29.00
2022-10-31T06:08:29.141Z,32.85
2022-10-31T06:10:58.701Z,41.28
2022-10-31T06:13:45.823Z,35.88
2022-10-31T06:16:37.254Z,32.92
2022-10-31T06:19:24.773Z,18.38
2022-10-31T06:21:52.496Z,36.00
2022-10-31T06:24:20.194Z,30.98
2022-10-31T06:27:01.689Z,21.17
2022-10-31T06:29:29.045Z,29.38
2022-10-31T06:32:12.910Z,26.02
2022-10-31T06:34:44.043Z,36.55
2022-10-31T06:37:14.320Z,29.40
2022-10-31T06:39:45.236Z,25.67
2022-10-31T06:42:17.442Z,23.65
2022-10-31T06:44:44.616Z,41.95
2022-10-31T06:47:30.247Z,30.20
2022-10-31T06:50:06.815Z,35.55
2022-10-31T06:52:35.016Z,31.33
2022-10-31T06:55:03.676Z,26.80
2022-10-31T06:57:32.358Z,41.75
2022-10-31T07:00:02.547Z,32.58
2022-10-31T07:02:42.880Z,35.60
2022-10-31T07:05:10.692Z,32.80
2022-10-31T07:07:37.758Z,23.08
2022-10-31T07:10:05.811Z,17.00
2022-10-31T07:12:57.114Z,22.25
2022-10-31T07:15:27.133Z,14.73
2022-10-31T07:17:55.329Z,21.30
2022-10-31T07:20:23.445Z,11.55
2022-10-31T07:22:52.406Z,14.00
2022-10-31T07:25:20.130Z,10.73
2022-10-31T07:28:06.171Z,8.07
2022-10-31T07:30:33.933Z,14.70
2022-10-31T07:33:02.163Z,7.25
2022-10-31T07:35:49.071Z,4.85
2022-10-31T07:38:20.980Z,6.95
2022-10-31T07:40:54.212Z,9.15
2022-10-31T07:43:21.481Z,9.13
2022-10-31T07:46:17.698Z,6.45
2022-10-31T07:49:20.921Z,7.53
2022-10-31T07:52:07.791Z,8.73
2022-10-31T07:54:53.585Z,7.45
2022-10-31T07:57:25.076Z,8.15
2022-10-31T07:59:56.206Z,8.20
2022-10-31T08:02:24.383Z,9.00
2022-10-31T08:05:10.126Z,8.70
2022-10-31T08:07:56.862Z,12.70
2022-10-31T08:10:25.906Z,10.25
2022-10-31T08:13:04.176Z,8.63
2022-10-31T08:15:35.073Z,19.70
2022-10-31T08:18:04.262Z,5.97
2022-10-31T08:20:33.067Z,9.90
2022-10-31T08:23:03.233Z,9.98
2022-10-31T08:25:38.551Z,8.30
2022-10-31T08:28:07.737Z,8.25
2022-10-31T08:30:37.011Z,8.57
2022-10-31T08:33:23.189Z,13.38
2022-10-31T08:36:10.568Z,7.90
2022-10-31T08:39:02.089Z,14.77
2022-10-31T08:41:34.230Z,9.70
2022-10-31T08:44:01.708Z,8.98
2022-10-31T08:46:29.138Z,17.70
2022-10-31T08:48:56.509Z,20.48
2022-10-31T08:51:24.715Z,15.90
2022-10-31T08:53:54.974Z,12.63
2022-10-31T08:56:36.804Z,16.58
2022-10-31T08:59:11.133Z,11.52
2022-10-31T09:01:55.385Z,13.32
2022-10-31T09:04:22.825Z,13.70
2022-10-31T09:07:19.771Z,9.00
2022-10-31T09:09:39.570Z,7.13
2022-10-31T09:12:09.766Z,10.15
2022-10-31T09:14:55.973Z,12.00
2022-10-31T09:17:35.554Z,10.65
2022-10-31T09:20:22.344Z,9.65
2022-10-31T09:22:58.232Z,19.80
2022-10-31T09:25:26.505Z,7.65
2022-10-31T09:28:15.949Z,6.00
2022-10-31T09:30:47.590Z,12.10
2022-10-31T09:33:20.278Z,7.90
2022-10-31T09:36:03.161Z,14.63
2022-10-31T09:38:31.315Z,12.27
2022-10-31T09:41:28.356Z,9.23
2022-10-31T09:44:11.093Z,8.05
2022-10-31T09:47:04.632Z,10.73
2022-10-31T09:49:53.659Z,8.77
2022-10-31T09:52:34.287Z,13.90
2022-10-31T09:55:17.458Z,9.70
2022-10-31T09:57:47.118Z,6.60
2022-10-31T10:00:21.717Z,19.63
2022-10-31T10:03:24.349Z,7.03
2022-10-31T10:06:05.653Z,5.15
2022-10-31T10:08:52.964Z,11.63
2022-10-31T10:12:49.773Z,8.60
2022-10-31T10:15:31.212Z,11.30
2022-10-31T10:18:05.029Z,9.57
2022-10-31T10:21:02.263Z,6.35
2022-10-31T10:23:49.386Z,11.35
2022-10-31T10:29:05.005Z,7.32
2022-10-31T10:31:37.988Z,11.18
2022-10-31T10:34:33.184Z,7.10
2022-10-31T10:37:10.206Z,9.10
2022-10-31T10:39:45.249Z,7.25
2022-10-31T10:42:34.288Z,8.27
2022-10-31T10:45:30.473Z,8.18
2022-10-31T10:48:22.063Z,11.98
2022-10-31T10:50:51.944Z,6.72
2022-10-31T10:54:00.373Z,8.52
2022-10-31T10:56:49.020Z,7.13
2022-10-31T10:59:21.522Z,5.95
2022-10-31T11:01:52.530Z,3.83
2022-10-31T11:04:23.209Z,7.10
2022-10-31T11:07:06.587Z,3.47
2022-10-31T11:09:35.863Z,7.22
2022-10-31T11:12:34.670Z,3.70
2022-10-31T11:15:09.829Z,9.05
2022-10-31T11:17:44.051Z,6.68
2022-10-31T11:20:17.913Z,7.00
2022-10-31T11:22:50.463Z,5.63
2022-10-31T11:25:20.536Z,6.53
2022-10-31T11:28:10.522Z,5.18
2022-10-31T11:30:50.676Z,14.13
2022-10-31T11:33:30.546Z,8.38
2022-10-31T11:35:59.248Z,5.80
2022-10-31T11:38:37.251Z,10.73
2022-10-31T11:41:16.099Z,10.90
2022-10-31T11:43:52.183Z,7.57
2022-10-31T11:46:24.887Z,6.40
2022-10-31T11:48:55.557Z,8.23
2022-10-31T11:51:29.884Z,9.18
2022-10-31T11:54:02.763Z,8.13
2022-10-31T11:56:42.776Z,6.75
2022-10-31T11:59:38.826Z,5.55
2022-10-31T12:02:20.399Z,8.15
2022-10-31T12:04:54.374Z,5.00
2022-10-31T12:07:24.261Z,8.75
2022-10-31T12:09:52.271Z,8.38
2022-10-31T12:12:44.772Z,10.15
2022-10-31T12:15:28.891Z,4.00
2022-10-31T12:18:26.944Z,7.35
2022-10-31T12:21:10.392Z,8.52
2022-10-31T12:23:44.335Z,3.92
2022-10-31T12:26:45.216Z,11.18
2022-10-31T12:29:35.492Z,4.85
2022-10-31T12:32:02.741Z,6.45
2022-10-31T12:35:03.792Z,20.02
2022-10-31T12:37:49.830Z,11.68
2022-10-31T12:40:32.147Z,6.88
2022-10-31T12:43:33.372Z,8.63
2022-10-31T12:46:03.506Z,4.47
2022-10-31T12:48:36.494Z,9.65
2022-10-31T12:51:17.601Z,7.22
2022-10-31T12:53:50.690Z,5.63
2022-10-31T12:56:30.947Z,9.98
2022-10-31T12:59:10.045Z,6.55
2022-10-31T13:02:00.167Z,5.47
2022-10-31T13:04:36.800Z,5.07
2022-10-31T13:07:15.497Z,10.13
2022-10-31T13:10:00.726Z,8.80
2022-10-31T13:12:33.394Z,12.05
2022-10-31T13:15:17.773Z,8.05
2022-10-31T13:17:49.966Z,5.30
2022-10-31T13:20:29.926Z,6.75
2022-10-31T13:23:48.597Z,6.20
2022-10-31T13:26:35.861Z,16.00
2022-10-31T13:29:32.680Z,2.45
2022-10-31T13:32:05.765Z,8.93
2022-10-31T13:34:39.832Z,3.83
2022-10-31T13:37:18.934Z,3.75
2022-10-31T13:40:10.797Z,6.40
2022-10-31T13:42:52.409Z,9.80
2022-10-31T13:45:23.001Z,8.52
2022-10-31T13:48:18.413Z,4.30
2022-10-31T13:51:05.574Z,5.70
2022-10-31T13:53:55.899Z,4.72
2022-10-31T13:56:27.750Z,5.80
2022-10-31T13:59:11.895Z,7.13
2022-10-31T14:01:52.254Z,4.72
2022-10-31T14:04:25.570Z,5.70
2022-10-31T14:07:22.328Z,5.97
2022-10-31T14:09:54.444Z,5.88
2022-10-31T14:12:37.873Z,7.50
2022-10-31T14:15:22.694Z,5.63
2022-10-31T14:17:54.953Z,9.77
2022-10-31T14:20:44.192Z,7.60
2022-10-31T14:23:42.043Z,5.53
2022-10-31T14:26:27.296Z,4.43
2022-10-31T14:29:00.440Z,10.27
2022-10-31T14:31:38.281Z,7.10
2022-10-31T14:34:23.774Z,4.45
2022-10-31T14:37:08.062Z,6.75
2022-10-31T14:39:54.063Z,7.82
2022-10-31T14:42:37.171Z,9.68
2022-10-31T14:45:30.109Z,11.90
2022-10-31T14:48:25.885Z,8.88
2022-10-31T14:50:56.152Z,8.73
2022-10-31T14:53:46.725Z,9.45
2022-10-31T14:56:22.860Z,4.55
2022-10-31T14:58:50.814Z,6.55
2022-10-31T15:01:41.177Z,8.32
2022-10-31T15:04:24.199Z,10.60
2022-10-31T15:07:07.379Z,9.70
2022-10-31T15:09:36.393Z,22.45
2022-10-31T15:12:26.695Z,24.33
2022-10-31T15:14:54.753Z,24.13
2022-10-31T15:17:23.551Z,14.90
2022-10-31T15:19:52.091Z,20.35
2022-10-31T15:22:21.836Z,27.30
2022-10-31T15:24:50.300Z,31.83
2022-10-31T15:27:19.068Z,39.00
2022-10-31T15:29:51.695Z,33.08
2022-10-31T15:32:27.535Z,24.20
2022-10-31T15:35:01.737Z,84.78
2022-10-31T15:37:29.984Z,42.80
2022-10-31T15:39:56.992Z,65.82
2022-10-31T15:42:26.255Z,57.88
2022-10-31T15:45:02.815Z,96.00
2022-10-31T15:47:33.120Z,65.93
2022-10-31T15:50:01.696Z,73.35
2022-10-31T15:52:48.159Z,62.05
2022-10-31T15:55:17.039Z,59.45
2022-10-31T15:57:48.430Z,24.58
2022-10-31T16:00:28.570Z,33.70
2022-10-31T16:03:21.000Z,34.25
2022-10-31T16:05:54.021Z,41.30
2022-10-31T16:08:40.456Z,56.78
2022-10-31T16:11:07.556Z,37.13
2022-10-31T16:13:42.682Z,37.08
2022-10-31T16:16:34.073Z,34.95
2022-10-31T16:19:04.635Z,28.83
2022-10-31T16:21:38.262Z,32.10
2022-10-31T16:24:27.054Z,35.38
2022-10-31T16:26:59.021Z,42.80
2022-10-31T16:29:46.072Z,58.28
2022-10-31T16:32:36.161Z,74.38
2022-10-31T16:35:20.324Z,50.42
2022-10-31T16:37:47.465Z,57.40
2022-10-31T16:40:15.770Z,53.50
2022-10-31T16:42:44.409Z,43.60
2022-10-31T16:45:28.093Z,63.08
2022-10-31T16:48:03.733Z,56.55
2022-10-31T16:50:31.343Z,71.38
2022-10-31T16:53:13.426Z,69.85
2022-10-31T16:55:52.009Z,62.88
2022-10-31T16:58:24.377Z,56.47
2022-10-31T17:00:52.751Z,50.38
2022-10-31T17:03:20.919Z,44.08
2022-10-31T17:05:48.058Z,48.13
2022-10-31T17:08:15.617Z,56.15
2022-10-31T17:10:45.188Z,52.13
2022-10-31T17:13:19.670Z,49.42
2022-10-31T17:15:50.813Z,51.50
2022-10-31T17:21:00.259Z,60.97
2022-10-31T17:23:28.451Z,75.55
2022-10-31T17:25:58.482Z,62.45
2022-10-31T17:28:29.764Z,63.15
2022-10-31T17:30:59.500Z,72.70
2022-10-31T17:33:27.195Z,53.05
2022-10-31T17:35:54.604Z,59.40
2022-10-31T17:38:21.856Z,47.40
2022-10-31T17:43:21.053Z,49.80
2022-10-31T17:45:48.226Z,53.85
2022-10-31T17:48:15.093Z,49.47
2022-10-31T17:50:42.314Z,46.60
2022-10-31T17:53:09.391Z,56.72
2022-10-31T17:55:37.719Z,95.65
2022-10-31T17:58:05.603Z,105.30
2022-10-31T18:00:33.114Z,79.88
2022-10-31T18:03:04.000Z,50.20
2022-10-31T18:05:32.870Z,54.38
2022-10-31T18:08:03.748Z,44.75
2022-10-31T18:10:32.013Z,58.47
2022-10-31T18:12:59.474Z,33.72
2022-10-31T18:15:26.795Z,35.35
2022-10-31T18:17:53.706Z,33.85
2022-10-31T18:20:20.888Z,40.42
2022-10-31T18:22:48.013Z,39.78
2022-10-31T18:25:14.920Z,51.78
2022-10-31T18:27:42.047Z,50.67
2022-10-31T18:30:09.487Z,42.55
2022-10-31T18:32:36.744Z,37.97
2022-10-31T18:35:04.575Z,34.28
2022-10-31T18:37:31.873Z,30.48
2022-10-31T18:39:58.911Z,26.15
2022-10-31T18:42:26.224Z,31.02
2022-10-31T18:44:53.200Z,24.08
2022-10-31T18:47:20.478Z,21.52
2022-10-31T18:49:47.606Z,21.30
2022-10-31T18:52:14.713Z,17.13
2022-10-31T18:54:41.880Z,18.38
2022-10-31T18:57:09.065Z,14.10
2022-10-31T18:59:35.970Z,15.13
2022-10-31T19:02:03.358Z,20.90
2022-10-31T19:04:30.409Z,19.92
2022-10-31T19:06:57.771Z,17.73
2022-10-31T19:09:25.994Z,14.57
2022-10-31T19:11:52.972Z,16.20
2022-10-31T19:14:20.302Z,18.33
2022-10-31T19:16:47.292Z,19.55
2022-10-31T19:19:14.440Z,18.25
2022-10-31T19:21:41.465Z,16.25
2022-10-31T19:24:09.741Z,13.35
2022-10-31T19:26:36.859Z,16.67
2022-10-31T19:29:03.978Z,22.13
2022-10-31T19:31:31.229Z,17.92
2022-10-31T19:33:58.209Z,15.40
2022-10-31T19:36:26.788Z,15.60
2022-10-31T19:38:54.069Z,15.65
2022-10-31T19:41:26.005Z,23.73
2022-10-31T19:43:54.048Z,16.27
2022-10-31T19:46:40.458Z,24.73
2022-10-31T19:49:11.116Z,31.92
2022-10-31T19:51:38.193Z,27.98
2022-10-31T19:54:05.962Z,29.60
2022-10-31T19:56:32.826Z,30.98
2022-10-31T19:59:00.070Z,38.45
2022-10-31T20:01:27.834Z,40.35
2022-10-31T20:03:54.868Z,39.50
2022-10-31T20:06:29.429Z,36.53
2022-10-31T20:08:56.566Z,112.05
2022-10-31T20:11:25.613Z,64.60
2022-10-31T20:13:55.382Z,68.03
2022-10-31T20:16:22.464Z,66.82
2022-10-31T20:18:49.437Z,75.10
2022-10-31T20:21:23.302Z,62.85
2022-10-31T20:23:54.732Z,79.95
2022-10-31T20:28:49.350Z,118.93
2022-10-31T20:31:20.163Z,98.57
2022-10-31T20:33:49.417Z,73.70
2022-10-31T20:36:21.278Z,81.13
2022-10-31T20:38:48.832Z,66.88
2022-10-31T20:41:17.589Z,65.70
2022-10-31T20:43:45.665Z,50.15
2022-10-31T20:46:25.102Z,49.65
2022-10-31T20:48:53.531Z,86.32
2022-10-31T20:51:27.573Z,43.67
2022-10-31T20:53:56.522Z,59.58
2022-10-31T20:56:26.371Z,50.83
2022-10-31T20:58:56.315Z,37.85
2022-10-31T21:01:29.349Z,21.92
2022-10-31T21:04:00.216Z,19.63
2022-10-31T21:06:28.286Z,22.83
2022-10-31T21:08:56.394Z,22.20
2022-10-31T21:11:26.233Z,18.58
2022-10-31T21:13:54.455Z,18.88
2022-10-31T21:16:28.031Z,17.27
2022-10-31T21:18:55.597Z,13.00
2022-10-31T21:21:29.015Z,21.23
2022-10-31T21:24:03.906Z,11.90
2022-10-31T21:26:35.029Z,26.05
2022-10-31T21:29:03.847Z,23.02
2022-10-31T21:31:31.482Z,22.10
2022-10-31T21:33:58.802Z,30.63
2022-10-31T21:36:26.394Z,24.98
2022-10-31T21:38:54.645Z,26.38
2022-10-31T21:41:22.468Z,31.52
2022-10-31T21:43:51.662Z,23.00
2022-10-31T21:46:23.920Z,21.40
2022-10-31T21:48:51.136Z,23.27
2022-10-31T21:51:21.154Z,23.10
2022-10-31T21:54:07.606Z,22.60
2022-10-31T21:56:35.023Z,26.27
2022-10-31T21:59:02.581Z,23.55
2022-10-31T22:01:29.949Z,18.70
2022-10-31T22:03:58.688Z,30.50
2022-10-31T22:06:27.008Z,32.30
2022-10-31T22:08:54.988Z,28.02
2022-10-31T22:11:22.254Z,24.65
2022-10-31T22:13:50.410Z,22.05
2022-10-31T22:16:20.343Z,21.90
2022-10-31T22:18:47.964Z,35.05
2022-10-31T22:21:18.540Z,21.98
2022-10-31T22:23:51.516Z,25.35
2022-10-31T22:26:18.928Z,30.02
2022-10-31T22:28:48.194Z,25.58
2022-10-31T22:31:20.541Z,21.40
2022-10-31T22:33:49.167Z,19.50
2022-10-31T22:36:22.230Z,14.98
2022-10-31T22:38:49.565Z,19.98
2022-10-31T22:41:25.595Z,22.13
2022-10-31T22:43:56.744Z,24.40
2022-10-31T22:46:32.989Z,22.58
2022-10-31T22:49:02.411Z,19.30
2022-10-31T22:51:32.927Z,22.90
2022-10-31T22:54:00.444Z,19.50
2022-10-31T22:56:32.968Z,19.30
2022-10-31T22:59:01.358Z,18.45
2022-10-31T23:01:30.862Z,12.95
2022-10-31T23:03:58.252Z,16.90
2022-10-31T23:06:27.869Z,16.83
2022-10-31T23:08:54.857Z,10.20
2022-10-31T23:11:26.353Z,13.23
2022-10-31T23:16:51.230Z,13.43
2022-10-31T23:19:20.505Z,11.90
2022-10-31T23:21:56.692Z,16.33
2022-10-31T23:24:40.054Z,19.80
2022-10-31T23:27:11.779Z,11.48
2022-10-31T23:29:44.912Z,14.52
2022-10-31T23:32:16.398Z,16.95
2022-10-31T23:34:44.373Z,12.45
2022-10-31T23:37:12.264Z,11.73
2022-10-31T23:39:39.506Z,10.30
2022-10-31T23:42:06.628Z,10.77
2022-10-31T23:44:33.741Z,16.13
2022-10-31T23:47:01.171Z,12.98
2022-10-31T23:49:29.515Z,15.15
2022-10-31T23:51:59.499Z,12.82
2022-10-31T23:54:27.453Z,13.07
2022-10-31T23:56:54.849Z,10.55
2022-10-31T23:59:22.952Z,7.88
